createdAt,value
2022-12-26T00:02:25.422Z,16.05
2022-12-26T00:04:53.686Z,20.67
2022-12-26T00:07:23.344Z,16.15
2022-12-26T00:09:51.155Z,17.77
2022-12-26T00:12:19.154Z,14.77
2022-12-26T00:14:46.952Z,16.77
2022-12-26T00:17:14.939Z,17.92
2022-12-26T00:19:42.740Z,18.40
2022-12-26T00:22:10.799Z,23.90
2022-12-26T00:24:39.760Z,22.63
2022-12-26T00:27:07.756Z,17.10
2022-12-26T00:29:35.270Z,17.40
2022-12-26T00:32:03.485Z,16.45
2022-12-26T00:34:31.241Z,20.45
2022-12-26T00:36:59.244Z,18.85
2022-12-26T00:39:26.815Z,17.02
2022-12-26T00:41:56.201Z,16.65
2022-12-26T00:44:23.839Z,19.63
2022-12-26T00:46:51.802Z,18.40
2022-12-26T00:49:21.240Z,18.30
2022-12-26T00:51:49.243Z,15.35
2022-12-26T00:54:16.723Z,19.65
2022-12-26T00:56:44.731Z,12.73
2022-12-26T00:59:13.782Z,13.38
2022-12-26T01:01:42.076Z,14.98
2022-12-26T01:04:09.769Z,13.82
2022-12-26T01:06:38.022Z,14.80
2022-12-26T01:09:05.590Z,12.63
2022-12-26T01:11:33.600Z,14.45
2022-12-26T01:14:01.227Z,12.07
2022-12-26T01:16:30.758Z,13.57
2022-12-26T01:18:58.375Z,13.48
2022-12-26T01:21:26.290Z,14.15
2022-12-26T01:23:54.876Z,13.70
2022-12-26T01:26:22.852Z,14.50
2022-12-26T01:28:51.879Z,13.07
2022-12-26T01:31:21.223Z,17.23
2022-12-26T01:33:50.536Z,13.90
2022-12-26T01:36:18.976Z,15.05
2022-12-26T01:38:46.873Z,13.27
2022-12-26T01:41:15.314Z,13.68
2022-12-26T01:43:53.512Z,13.15
2022-12-26T01:46:24.448Z,12.15
2022-12-26T01:48:55.038Z,13.82
2022-12-26T01:51:28.647Z,13.32
2022-12-26T01:54:36.952Z,15.32
2022-12-26T01:56:48.910Z,13.40
2022-12-26T01:59:19.299Z,12.77
2022-12-26T02:02:05.375Z,11.90
2022-12-26T02:04:38.492Z,11.00
2022-12-26T02:07:06.837Z,11.25
2022-12-26T02:09:35.082Z,14.07
2022-12-26T02:12:35.365Z,12.05
2022-12-26T02:14:59.885Z,12.45
2022-12-26T02:17:28.573Z,11.07
2022-12-26T02:20:01.894Z,13.98
2022-12-26T02:23:01.570Z,11.32
2022-12-26T02:25:51.329Z,10.25
2022-12-26T02:28:50.903Z,10.70
2022-12-26T02:31:30.153Z,12.88
2022-12-26T02:34:10.228Z,13.35
2022-12-26T02:36:57.128Z,13.15
2022-12-26T02:39:43.638Z,11.00
2022-12-26T02:42:25.352Z,12.10
2022-12-26T02:44:59.152Z,12.27
2022-12-26T02:47:36.681Z,10.25
2022-12-26T02:50:10.443Z,10.13
2022-12-26T02:52:49.870Z,12.63
2022-12-26T02:55:23.814Z,11.02
2022-12-26T02:58:04.996Z,10.63
2022-12-26T03:00:36.797Z,9.73
2022-12-26T03:03:10.388Z,11.85
2022-12-26T03:05:43.039Z,11.45
2022-12-26T03:08:18.709Z,10.75
2022-12-26T03:10:46.837Z,8.70
2022-12-26T03:13:19.909Z,11.50
2022-12-26T03:15:52.718Z,8.73
2022-12-26T03:21:12.557Z,9.65
2022-12-26T03:23:43.617Z,10.65
2022-12-26T03:26:17.225Z,8.85
2022-12-26T03:28:45.160Z,10.70
2022-12-26T03:31:15.475Z,12.07
2022-12-26T03:33:46.591Z,13.88
2022-12-26T03:36:21.166Z,8.63
2022-12-26T03:38:58.544Z,9.43
2022-12-26T03:41:30.877Z,9.80
2022-12-26T03:44:15.720Z,9.65
2022-12-26T03:47:01.040Z,10.15
2022-12-26T03:52:05.433Z,11.38
2022-12-26T03:54:39.992Z,9.63
2022-12-26T03:57:12.869Z,8.25
2022-12-26T04:02:15.070Z,11.02
2022-12-26T04:04:46.094Z,9.95
2022-12-26T04:07:18.070Z,10.20
2022-12-26T04:09:51.645Z,10.43
2022-12-26T04:12:23.274Z,8.32
2022-12-26T04:14:55.172Z,8.80
2022-12-26T04:17:29.918Z,8.73
2022-12-26T04:20:06.192Z,8.35
2022-12-26T04:22:41.600Z,8.93
2022-12-26T04:25:16.555Z,9.88
2022-12-26T04:27:44.850Z,10.48
2022-12-26T04:30:12.564Z,9.10
2022-12-26T04:32:43.867Z,9.55
2022-12-26T04:35:20.870Z,9.73
2022-12-26T04:37:51.528Z,8.75
2022-12-26T04:40:23.683Z,8.43
2022-12-26T04:42:51.836Z,9.48
2022-12-26T04:45:20.920Z,10.93
2022-12-26T04:47:50.481Z,10.95
2022-12-26T04:50:19.589Z,10.07
2022-12-26T04:52:47.922Z,10.57
2022-12-26T04:55:15.846Z,9.50
2022-12-26T04:57:44.013Z,9.73
2022-12-26T05:00:12.631Z,10.98
2022-12-26T05:02:40.776Z,8.85
2022-12-26T05:05:10.542Z,9.75
2022-12-26T05:07:40.212Z,8.50
2022-12-26T05:10:14.751Z,10.68
2022-12-26T05:12:42.868Z,9.45
2022-12-26T05:15:10.597Z,10.15
2022-12-26T05:17:38.740Z,10.15
2022-12-26T05:20:07.249Z,9.77
2022-12-26T05:22:38.070Z,8.57
2022-12-26T05:25:15.746Z,9.68
2022-12-26T05:27:45.770Z,9.77
2022-12-26T05:30:13.283Z,9.27
2022-12-26T05:32:41.513Z,7.03
2022-12-26T05:35:09.832Z,9.93
2022-12-26T05:37:37.852Z,8.68
2022-12-26T05:40:08.639Z,9.07
2022-12-26T05:42:36.787Z,9.40
2022-12-26T05:45:05.017Z,10.88
2022-12-26T05:47:33.013Z,10.82
2022-12-26T05:50:00.769Z,10.90
2022-12-26T05:52:28.954Z,8.43
2022-12-26T05:54:59.419Z,8.00
2022-12-26T05:57:29.251Z,6.75
2022-12-26T05:59:56.925Z,8.32
2022-12-26T06:02:24.989Z,10.00
2022-12-26T06:04:52.528Z,7.95
2022-12-26T06:07:20.498Z,10.98
2022-12-26T06:09:48.376Z,9.35
2022-12-26T06:12:16.273Z,8.90
2022-12-26T06:14:45.383Z,8.43
2022-12-26T06:17:13.225Z,7.82
2022-12-26T06:19:46.555Z,8.60
2022-12-26T06:22:14.927Z,7.55
2022-12-26T06:24:42.526Z,6.75
2022-12-26T06:27:10.409Z,8.23
2022-12-26T06:29:38.006Z,9.50
2022-12-26T06:32:07.958Z,8.40
2022-12-26T06:34:35.438Z,8.57
2022-12-26T06:37:03.564Z,9.35
2022-12-26T06:39:31.173Z,8.73
2022-12-26T06:41:59.195Z,10.25
2022-12-26T06:44:26.914Z,10.48
2022-12-26T06:46:54.892Z,9.75
2022-12-26T06:49:28.722Z,7.80
2022-12-26T06:52:00.315Z,8.30
2022-12-26T06:54:27.907Z,8.27
2022-12-26T06:56:55.917Z,8.88
2022-12-26T06:59:23.721Z,9.70
2022-12-26T07:01:52.451Z,8.77
2022-12-26T07:04:20.313Z,9.27
2022-12-26T07:06:49.818Z,9.40
2022-12-26T07:09:18.687Z,10.20
2022-12-26T07:11:48.907Z,11.00
2022-12-26T07:14:17.051Z,7.90
2022-12-26T07:16:45.845Z,10.15
2022-12-26T07:19:14.563Z,7.00
2022-12-26T07:21:43.480Z,9.90
2022-12-26T07:24:16.526Z,9.07
2022-12-26T07:26:45.092Z,9.27
2022-12-26T07:29:13.132Z,9.88
2022-12-26T07:31:41.956Z,9.20
2022-12-26T07:34:10.061Z,10.18
2022-12-26T07:36:38.286Z,11.13
2022-12-26T07:39:06.091Z,10.10
2022-12-26T07:41:35.641Z,10.38
2022-12-26T07:44:03.528Z,11.45
2022-12-26T07:46:31.808Z,11.93
2022-12-26T07:48:59.820Z,11.10
2022-12-26T07:51:27.854Z,9.57
2022-12-26T07:53:55.749Z,11.45
2022-12-26T07:56:23.701Z,11.48
2022-12-26T07:58:53.157Z,11.07
2022-12-26T08:01:21.247Z,10.15
2022-12-26T08:03:49.593Z,10.25
2022-12-26T08:06:18.255Z,9.82
2022-12-26T08:08:50.807Z,9.63
2022-12-26T08:11:22.535Z,12.80
2022-12-26T08:13:50.251Z,11.10
2022-12-26T08:16:20.950Z,11.70
2022-12-26T08:18:48.782Z,10.07
2022-12-26T08:21:17.012Z,10.27
2022-12-26T08:23:44.577Z,12.68
2022-12-26T08:26:13.524Z,11.52
2022-12-26T08:28:41.397Z,11.55
2022-12-26T08:31:12.572Z,11.45
2022-12-26T08:33:42.160Z,10.55
2022-12-26T08:36:12.217Z,11.80
2022-12-26T08:38:40.366Z,11.25
2022-12-26T08:41:08.398Z,11.82
2022-12-26T08:44:16.428Z,11.40
2022-12-26T08:46:24.744Z,11.57
2022-12-26T08:48:53.992Z,9.77
2022-12-26T08:51:23.806Z,10.98
2022-12-26T08:53:52.279Z,9.32
2022-12-26T08:56:22.391Z,8.93
2022-12-26T08:58:50.066Z,8.65
2022-12-26T09:01:20.555Z,9.70
2022-12-26T09:03:48.288Z,8.52
2022-12-26T09:06:18.135Z,8.15
2022-12-26T09:08:45.673Z,9.70
2022-12-26T09:11:15.647Z,8.35
2022-12-26T09:13:44.214Z,8.27
2022-12-26T09:16:14.710Z,7.15
2022-12-26T09:18:43.219Z,7.90
2022-12-26T09:21:12.945Z,8.00
2022-12-26T09:23:43.080Z,11.50
2022-12-26T09:26:12.973Z,7.68
2022-12-26T09:28:40.864Z,7.68
2022-12-26T09:31:20.455Z,8.48
2022-12-26T09:33:49.103Z,7.72
2022-12-26T09:36:20.390Z,7.97
2022-12-26T09:38:50.145Z,7.57
2022-12-26T09:41:45.404Z,8.95
2022-12-26T09:44:20.161Z,5.90
2022-12-26T09:47:00.472Z,8.70
2022-12-26T09:49:32.132Z,6.95
2022-12-26T09:52:04.756Z,8.00
2022-12-26T09:54:38.068Z,8.15
2022-12-26T09:57:14.792Z,8.73
2022-12-26T09:59:49.284Z,8.82
2022-12-26T10:02:20.061Z,8.13
2022-12-26T10:04:48.513Z,7.25
2022-12-26T10:07:25.760Z,6.82
2022-12-26T10:10:09.673Z,6.75
2022-12-26T10:12:42.736Z,8.55
2022-12-26T10:15:39.078Z,11.85
2022-12-26T10:18:24.441Z,6.68
2022-12-26T10:21:22.368Z,6.45
2022-12-26T10:23:55.116Z,8.00
2022-12-26T10:26:31.247Z,7.13
2022-12-26T10:29:03.583Z,5.80
2022-12-26T10:34:08.399Z,8.80
2022-12-26T10:36:40.628Z,8.65
2022-12-26T10:39:17.684Z,9.18
2022-12-26T10:41:52.510Z,9.32
2022-12-26T10:44:25.679Z,7.35
2022-12-26T10:47:19.586Z,6.97
2022-12-26T10:49:48.585Z,10.10
2022-12-26T10:52:18.029Z,8.95
2022-12-26T10:54:51.476Z,9.80
2022-12-26T10:57:42.248Z,8.18
2022-12-26T11:00:16.834Z,7.82
2022-12-26T11:02:44.642Z,8.50
2022-12-26T11:05:33.220Z,8.43
2022-12-26T11:08:18.845Z,8.23
2022-12-26T11:11:00.978Z,7.82
2022-12-26T11:13:35.831Z,7.13
2022-12-26T11:16:04.894Z,7.63
2022-12-26T11:18:35.407Z,6.40
2022-12-26T11:21:19.836Z,6.78
2022-12-26T11:23:48.239Z,8.52
2022-12-26T11:26:24.443Z,8.15
2022-12-26T11:29:10.513Z,7.88
2022-12-26T11:31:39.369Z,8.55
2022-12-26T11:34:09.715Z,9.48
2022-12-26T11:36:44.511Z,8.18
2022-12-26T11:39:22.969Z,8.32
2022-12-26T11:41:52.149Z,7.50
2022-12-26T11:44:25.456Z,9.43
2022-12-26T11:46:57.591Z,8.32
2022-12-26T11:49:30.017Z,7.13
2022-12-26T11:52:00.659Z,7.35
2022-12-26T11:54:31.589Z,7.53
2022-12-26T11:57:15.271Z,7.45
2022-12-26T11:59:44.753Z,6.35
2022-12-26T12:02:22.976Z,5.07
2022-12-26T12:04:52.523Z,4.60
2022-12-26T12:07:57.691Z,5.25
2022-12-26T12:11:10.208Z,5.32
2022-12-26T12:14:15.439Z,4.88
2022-12-26T12:16:58.776Z,5.47
2022-12-26T12:19:47.874Z,6.03
2022-12-26T12:22:40.714Z,5.15
2022-12-26T12:25:32.249Z,4.70
2022-12-26T12:28:13.221Z,5.47
2022-12-26T12:30:48.523Z,5.53
2022-12-26T12:33:30.921Z,5.15
2022-12-26T12:36:08.930Z,6.20
2022-12-26T12:38:54.708Z,8.48
2022-12-26T12:41:48.475Z,8.55
2022-12-26T12:44:22.761Z,6.43
2022-12-26T12:47:00.101Z,8.48
2022-12-26T12:49:49.465Z,6.10
2022-12-26T12:52:32.724Z,6.15
2022-12-26T12:55:35.669Z,7.25
2022-12-26T12:58:13.524Z,6.03
2022-12-26T13:00:44.824Z,5.60
2022-12-26T13:03:26.115Z,5.45
2022-12-26T13:06:04.921Z,5.30
2022-12-26T13:08:39.295Z,4.90
2022-12-26T13:11:13.711Z,8.77
2022-12-26T13:13:53.212Z,5.55
2022-12-26T13:16:25.905Z,5.40
2022-12-26T13:18:58.600Z,3.97
2022-12-26T13:21:31.186Z,8.20
2022-12-26T13:24:03.952Z,4.53
2022-12-26T13:26:36.233Z,5.80
2022-12-26T13:29:11.077Z,5.25
2022-12-26T13:31:40.238Z,5.93
2022-12-26T13:34:11.400Z,7.53
2022-12-26T13:36:44.219Z,5.95
2022-12-26T13:39:38.079Z,6.00
2022-12-26T13:42:31.984Z,8.32
2022-12-26T13:45:46.512Z,5.10
2022-12-26T13:49:05.599Z,5.60
2022-12-26T13:51:48.008Z,8.73
2022-12-26T13:54:17.009Z,9.68
2022-12-26T13:57:14.976Z,6.78
2022-12-26T13:59:52.350Z,7.40
2022-12-26T14:03:16.238Z,6.82
2022-12-26T14:05:37.244Z,6.55
2022-12-26T14:08:14.388Z,6.70
2022-12-26T14:10:57.023Z,6.47
2022-12-26T14:13:44.916Z,6.45
2022-12-26T14:16:20.105Z,7.60
2022-12-26T14:18:57.313Z,8.70
2022-12-26T14:21:40.091Z,6.47
2022-12-26T14:24:24.005Z,8.98
2022-12-26T14:26:57.911Z,6.55
2022-12-26T14:29:32.958Z,8.30
2022-12-26T14:32:12.438Z,6.97
2022-12-26T14:34:55.875Z,8.68
2022-12-26T14:37:31.695Z,8.55
2022-12-26T14:40:18.797Z,10.48
2022-12-26T14:43:02.055Z,8.02
2022-12-26T14:45:45.294Z,8.57
2022-12-26T14:48:58.352Z,9.05
2022-12-26T14:51:40.598Z,9.00
2022-12-26T14:54:33.482Z,8.10
2022-12-26T14:57:52.908Z,8.50
2022-12-26T15:00:33.043Z,11.05
2022-12-26T15:03:31.342Z,8.90
2022-12-26T15:06:21.173Z,6.07
2022-12-26T15:09:04.323Z,7.50
2022-12-26T15:12:20.600Z,8.93
2022-12-26T15:15:21.600Z,9.10
2022-12-26T15:18:07.031Z,7.93
2022-12-26T15:21:11.277Z,8.68
2022-12-26T15:26:44.750Z,7.47
2022-12-26T15:29:34.437Z,11.18
2022-12-26T15:32:10.036Z,9.48
2022-12-26T15:34:47.994Z,8.98
2022-12-26T15:37:28.358Z,7.15
2022-12-26T15:40:04.435Z,7.53
2022-12-26T15:42:43.545Z,8.30
2022-12-26T15:45:29.463Z,11.20
2022-12-26T15:48:04.811Z,11.05
2022-12-26T15:50:44.998Z,10.18
2022-12-26T15:53:25.693Z,9.25
2022-12-26T15:56:09.309Z,10.20
2022-12-26T15:59:07.409Z,8.85
2022-12-26T16:01:43.199Z,8.18
2022-12-26T16:04:21.356Z,8.52
2022-12-26T16:07:02.831Z,8.02
2022-12-26T16:09:45.861Z,8.20
2022-12-26T16:12:24.315Z,8.93
2022-12-26T16:15:01.933Z,9.52
2022-12-26T16:17:31.520Z,6.75
2022-12-26T16:19:59.517Z,7.07
2022-12-26T16:22:34.545Z,7.78
2022-12-26T16:25:03.283Z,6.28
2022-12-26T16:27:31.614Z,8.48
2022-12-26T16:30:09.773Z,6.10
2022-12-26T16:32:43.445Z,6.10
2022-12-26T16:35:20.986Z,5.25
2022-12-26T16:37:50.190Z,4.03
2022-12-26T16:40:24.447Z,3.92
2022-12-26T16:42:57.852Z,2.65
2022-12-26T16:45:27.790Z,4.15
2022-12-26T16:47:57.164Z,5.15
2022-12-26T16:50:27.634Z,4.80
2022-12-26T16:53:04.516Z,4.47
2022-12-26T16:55:42.035Z,3.53
2022-12-26T16:58:16.721Z,6.57
2022-12-26T17:00:52.708Z,4.55
2022-12-26T17:03:29.399Z,5.50
2022-12-26T17:05:57.531Z,3.67
2022-12-26T17:08:25.228Z,4.95
2022-12-26T17:10:53.693Z,4.35
2022-12-26T17:13:25.550Z,4.10
2022-12-26T17:15:57.201Z,5.32
2022-12-26T17:18:45.320Z,4.68
2022-12-26T17:21:19.799Z,5.45
2022-12-26T17:24:12.604Z,6.68
2022-12-26T17:26:42.679Z,5.10
2022-12-26T17:29:51.763Z,5.53
2022-12-26T17:32:30.346Z,5.95
2022-12-26T17:35:04.656Z,6.50
2022-12-26T17:37:33.028Z,5.88
2022-12-26T17:40:06.951Z,6.43
2022-12-26T17:42:44.810Z,8.48
2022-12-26T17:45:16.352Z,6.47
2022-12-26T17:47:44.623Z,6.13
2022-12-26T17:50:14.053Z,7.07
2022-12-26T17:52:42.457Z,6.63
2022-12-26T17:55:17.160Z,4.63
2022-12-26T17:57:45.516Z,6.70
2022-12-26T18:00:19.122Z,5.80
2022-12-26T18:02:47.217Z,5.45
2022-12-26T18:05:18.064Z,6.38
2022-12-26T18:07:50.712Z,6.00
2022-12-26T18:10:22.678Z,6.47
2022-12-26T18:12:51.506Z,6.03
2022-12-26T18:15:20.153Z,6.82
2022-12-26T18:17:50.130Z,5.32
2022-12-26T18:20:26.048Z,7.20
2022-12-26T18:22:54.556Z,6.22
2022-12-26T18:25:24.304Z,7.55
2022-12-26T18:27:52.975Z,5.93
2022-12-26T18:30:22.848Z,4.85
2022-12-26T18:32:52.323Z,5.35
2022-12-26T18:35:22.433Z,6.72
2022-12-26T18:37:52.268Z,7.43
2022-12-26T18:40:31.841Z,5.93
2022-12-26T18:43:00.304Z,5.47
2022-12-26T18:45:28.605Z,5.43
2022-12-26T18:47:57.674Z,5.25
2022-12-26T18:50:27.730Z,4.78
2022-12-26T18:52:56.097Z,4.63
2022-12-26T18:55:24.949Z,4.55
2022-12-26T18:57:53.562Z,5.38
2022-12-26T19:00:22.644Z,6.13
2022-12-26T19:02:51.311Z,5.75
2022-12-26T19:05:20.753Z,5.70
2022-12-26T19:07:50.760Z,7.05
2022-12-26T19:10:20.394Z,7.13
2022-12-26T19:12:49.729Z,8.68
2022-12-26T19:15:17.729Z,7.00
2022-12-26T19:17:46.832Z,5.18
2022-12-26T19:20:18.562Z,7.75
2022-12-26T19:22:47.735Z,6.05
2022-12-26T19:25:18.975Z,6.63
2022-12-26T19:27:48.593Z,6.20
2022-12-26T19:30:17.608Z,7.13
2022-12-26T19:32:45.673Z,6.28
2022-12-26T19:35:14.530Z,7.00
2022-12-26T19:37:42.972Z,6.97
2022-12-26T19:40:11.920Z,6.45
2022-12-26T19:42:41.394Z,7.45
2022-12-26T19:45:10.839Z,6.10
2022-12-26T19:47:39.003Z,5.85
2022-12-26T19:50:08.845Z,4.65
2022-12-26T19:52:38.051Z,4.70
2022-12-26T19:55:07.550Z,3.60
2022-12-26T19:57:35.654Z,5.20
2022-12-26T20:00:06.734Z,5.28
2022-12-26T20:02:37.256Z,5.43
2022-12-26T20:05:06.046Z,6.75
2022-12-26T20:07:34.489Z,5.20
2022-12-26T20:10:02.128Z,7.03
2022-12-26T20:12:30.192Z,8.57
2022-12-26T20:14:57.667Z,5.95
2022-12-26T20:17:27.310Z,5.93
2022-12-26T20:19:54.965Z,5.57
2022-12-26T20:22:23.155Z,5.22
2022-12-26T20:24:51.063Z,5.10
2022-12-26T20:27:19.686Z,6.47
2022-12-26T20:29:47.895Z,5.43
2022-12-26T20:32:16.061Z,6.40
2022-12-26T20:34:45.402Z,5.97
2022-12-26T20:37:13.397Z,5.70
2022-12-26T20:39:41.055Z,6.82
2022-12-26T20:42:09.209Z,6.25
2022-12-26T20:44:36.900Z,6.50
2022-12-26T20:47:05.220Z,5.88
2022-12-26T20:49:32.814Z,5.63
2022-12-26T20:52:02.569Z,5.60
2022-12-26T20:54:30.343Z,5.53
2022-12-26T20:56:58.770Z,5.85
2022-12-26T20:59:27.589Z,6.28
2022-12-26T21:01:55.752Z,7.20
2022-12-26T21:04:29.948Z,7.40
2022-12-26T21:06:58.117Z,7.55
2022-12-26T21:09:27.307Z,6.85
2022-12-26T21:11:55.552Z,8.93
2022-12-26T21:14:23.694Z,8.75
2022-12-26T21:16:53.512Z,8.50
2022-12-26T21:19:22.036Z,9.02
2022-12-26T21:21:52.982Z,8.65
2022-12-26T21:24:23.267Z,8.23
2022-12-26T21:26:55.846Z,8.43
2022-12-26T21:29:27.889Z,9.43
2022-12-26T21:34:27.062Z,8.98
2022-12-26T21:36:55.985Z,9.05
2022-12-26T21:39:23.574Z,9.65
2022-12-26T21:41:53.255Z,9.60
2022-12-26T21:44:21.609Z,8.98
2022-12-26T21:46:49.621Z,9.10
2022-12-26T21:49:17.521Z,9.85
2022-12-26T21:51:45.770Z,10.32
2022-12-26T21:54:13.447Z,9.32
2022-12-26T21:56:41.623Z,8.13
2022-12-26T21:59:11.226Z,8.43
2022-12-26T22:01:39.657Z,9.13
2022-12-26T22:04:11.999Z,10.00
2022-12-26T22:06:40.771Z,7.45
2022-12-26T22:09:08.989Z,9.68
2022-12-26T22:11:37.207Z,10.05
2022-12-26T22:14:04.916Z,10.80
2022-12-26T22:16:34.595Z,8.23
2022-12-26T22:19:02.408Z,7.95
2022-12-26T22:21:30.786Z,8.55
2022-12-26T22:23:58.704Z,8.05
2022-12-26T22:26:28.353Z,8.35
2022-12-26T22:28:56.370Z,7.38
2022-12-26T22:31:26.781Z,7.07
2022-12-26T22:33:57.309Z,8.05
2022-12-26T22:36:26.700Z,7.60
2022-12-26T22:38:55.074Z,6.50
2022-12-26T22:41:23.342Z,6.40
2022-12-26T22:43:50.959Z,6.10
2022-12-26T22:46:19.444Z,5.85
2022-12-26T22:48:47.262Z,5.80
2022-12-26T22:51:20.624Z,5.10
2022-12-26T22:53:48.642Z,5.22
2022-12-26T22:56:16.589Z,5.15
2022-12-26T22:58:44.426Z,3.15
2022-12-26T23:01:13.591Z,4.03
2022-12-26T23:03:41.644Z,2.70
2022-12-26T23:06:21.399Z,2.20
2022-12-26T23:08:51.978Z,2.67
2022-12-26T23:11:20.647Z,1.85
2022-12-26T23:13:49.397Z,2.85
2022-12-26T23:16:25.923Z,1.73
2022-12-26T23:18:57.925Z,2.05
2022-12-26T23:21:44.286Z,1.83
2022-12-26T23:24:19.346Z,2.35
2022-12-26T23:26:49.210Z,1.50
2022-12-26T23:29:24.421Z,2.60
2022-12-26T23:31:52.077Z,3.80
2022-12-26T23:34:20.266Z,2.38
2022-12-26T23:36:49.458Z,3.17
2022-12-26T23:39:17.635Z,3.33
2022-12-26T23:41:45.472Z,5.00
2022-12-26T23:44:13.694Z,2.25
2022-12-26T23:46:42.059Z,2.55
2022-12-26T23:49:12.565Z,2.03
2022-12-26T23:51:40.317Z,1.35
2022-12-26T23:54:09.967Z,2.75
2022-12-26T23:56:37.800Z,2.20
2022-12-26T23:59:05.616Z,2.50
